Time;durP1;ratioP1;P1;durP2;ratioP2;P2;SDS_P1;SDS_P2;PMS_P1;PMS_P2;Temp;Humidity;BMP_temperature;BMP_pressure;BME280_temperature;BME280_humidity;BME280_pressure;Samples;Min_cycle;Max_cycle;Signal;HPM_P1;HPM_P2
2023/09/29 00:08:45;;;;;;;0.30;0.30;;;20.30;99.90;;;;;;4718478;30;20067;-94
2023/09/29 00:12:16;;;;;;;0.30;0.30;;;20.10;99.90;;;;;;4666663;30;20314;-95
2023/09/29 00:15:45;;;;;;;;;;;;;;;;;;;;;
2023/09/29 00:18:30;;;;;;;0.30;0.30;;;20.20;99.90;;;;;;4688917;30;20100;-96
2023/09/29 00:21:42;;;;;;;0.43;0.43;;;20.30;99.90;;;;;;4682611;30;20037;-95
2023/09/29 00:28:28;;;;;;;0.63;0.63;;;20.20;99.90;;;;;;4728638;30;20042;-96
2023/09/29 00:41:05;;;;;;;0.30;0.30;;;20.30;99.90;;;;;;5152581;23;20272;-94
2023/09/29 00:54:40;;;;;;;;;;;;;;;;;;;;;
2023/09/29 01:01:42;;;;;;;0.75;0.50;;;20.20;99.90;;;;;;4817857;29;20038;-96
2023/09/29 01:04:09;;;;;;;0.32;0.32;;;20.20;99.90;;;;;;4819743;29;20056;-96
2023/09/29 01:07:32;;;;;;;;;;;;;;;;;;;;;
2023/09/29 01:10:45;;;;;;;0.20;0.20;;;20.00;99.90;;;;;;4871280;29;20049;-94
2023/09/29 01:13:30;;;;;;;0.30;0.30;;;20.10;99.90;;;;;;4858414;29;20025;-96
2023/09/29 01:16:15;;;;;;;;;;;;;;;;;;;;;
2023/09/29 01:19:31;;;;;;;0.30;0.30;;;20.10;99.90;;;;;;4871162;29;20024;-96
2023/09/29 01:21:57;;;;;;;0.30;0.30;;;20.00;99.90;;;;;;4861633;29;20040;-96
2023/09/29 01:25:24;;;;;;;0.30;0.30;;;20.10;99.90;;;;;;4892494;29;20036;-96
2023/09/29 01:28:34;;;;;;;;;;;;;;;;;;;;;
2023/09/29 01:39:08;;;;;;;0.20;0.20;;;20.10;99.90;;;;;;4951783;23;20056;-96
2023/09/29 01:42:08;;;;;;;0.20;0.20;;;20.20;99.90;;;;;;4906303;29;20052;-94
2023/09/29 01:54:55;;;;;;;;;;;;;;;;;;;;;
2023/09/29 02:01:00;;;;;;;0.20;0.20;;;20.30;99.90;;;;;;4852012;29;20033;-95
2023/09/29 02:03:57;;;;;;;;;;;;;;;;;;;;;
2023/09/29 02:10:58;;;;;;;;;;;;;;;;;;;;;
2023/09/29 02:20:42;;;;;;;;;;;;;;;;;;;;;
2023/09/29 02:23:59;;;;;;;0.25;0.25;;;20.40;99.90;;;;;;4800749;29;20129;-95
2023/09/29 02:27:16;;;;;;;0.52;0.52;;;20.40;99.90;;;;;;4840088;29;20144;-96
2023/09/29 02:37:56;;;;;;;;;;;;;;;;;;;;;
2023/09/29 02:40:54;;;;;;;0.35;0.35;;;20.30;99.90;;;;;;4794725;29;20027;-96
2023/09/29 02:44:30;;;;;;;;;;;;;;;;;;;;;
2023/09/29 02:47:14;;;;;;;0.20;0.20;;;20.30;99.90;;;;;;4767953;29;20039;-96
2023/09/29 02:49:46;;;;;;;0.68;0.68;;;20.30;99.90;;;;;;4775662;29;20068;-96
2023/09/29 02:53:19;;;;;;;;;;;;;;;;;;;;;
2023/09/29 02:56:37;;;;;;;0.27;0.27;;;20.30;99.90;;;;;;4738866;30;20056;-96
2023/09/29 03:03:03;;;;;;;1.55;1.13;;;20.20;99.90;;;;;;4741087;30;20124;-93
2023/09/29 03:05:43;;;;;;;0.20;0.20;;;20.10;99.90;;;;;;4725847;30;20037;-96
2023/09/29 03:08:42;;;;;;;0.40;0.40;;;20.20;99.90;;;;;;4706492;30;20044;-96
2023/09/29 03:11:26;;;;;;;0.30;0.30;;;20.20;99.90;;;;;;4729030;30;20040;-93
2023/09/29 03:14:25;;;;;;;0.20;0.20;;;20.30;99.90;;;;;;4707160;30;20037;-95
2023/09/29 03:16:58;;;;;;;0.30;0.30;;;20.30;99.90;;;;;;4708480;30;20032;-96
2023/09/29 03:19:34;;;;;;;0.52;0.43;;;20.20;99.90;;;;;;4707614;30;20037;-95
2023/09/29 03:22:00;;;;;;;0.35;0.35;;;20.20;99.90;;;;;;4710528;30;20049;-95
2023/09/29 03:24:37;;;;;;;0.30;0.30;;;20.10;99.90;;;;;;4721740;30;20065;-95
2023/09/29 03:27:03;;;;;;;0.20;0.20;;;20.20;99.90;;;;;;4709507;30;20043;-95
2023/09/29 03:29:44;;;;;;;0.40;0.40;;;20.20;99.90;;;;;;4706788;30;20032;-95
2023/09/29 03:32:21;;;;;;;0.20;0.20;;;20.20;99.90;;;;;;4781882;29;20157;-95
2023/09/29 03:34:55;;;;;;;0.20;0.20;;;20.20;99.90;;;;;;4904175;29;20036;-93
2023/09/29 03:37:36;;;;;;;0.35;0.35;;;20.30;99.90;;;;;;4908101;29;20024;-95
2023/09/29 03:40:34;;;;;;;0.30;0.30;;;20.30;99.90;;;;;;4902056;29;20024;-96
2023/09/29 03:43:09;;;;;;;0.32;0.32;;;20.40;99.90;;;;;;4900795;29;20857;-94
2023/09/29 03:46:24;;;;;;;0.30;0.30;;;20.30;99.90;;;;;;4933758;29;20048;-96
2023/09/29 03:49:46;;;;;;;0.40;0.40;;;20.40;99.90;;;;;;4921470;29;20091;-95
2023/09/29 03:52:11;;;;;;;0.20;0.20;;;20.40;99.90;;;;;;4899629;29;20223;-94
2023/09/29 03:54:40;;;;;;;0.52;0.52;;;20.30;99.90;;;;;;4907468;29;20052;-95
2023/09/29 03:57:10;;;;;;;0.43;0.43;;;20.30;99.90;;;;;;4914145;29;20207;-95
2023/09/29 03:59:39;;;;;;;0.30;0.30;;;20.20;99.90;;;;;;4912613;29;20032;-95
2023/09/29 04:02:17;;;;;;;0.30;0.30;;;20.30;99.90;;;;;;4907655;29;20121;-96
2023/09/29 04:04:58;;;;;;;;;;;;;;;;;;;;;
2023/09/29 04:07:26;;;;;;;1.35;0.85;;;20.30;99.90;;;;;;4906421;29;20020;-95
2023/09/29 04:09:57;;;;;;;0.20;0.20;;;20.40;99.90;;;;;;4903628;29;20028;-95
2023/09/29 04:12:26;;;;;;;0.43;0.38;;;20.30;99.90;;;;;;4911729;29;20028;-96
2023/09/29 04:14:57;;;;;;;0.30;0.30;;;20.30;99.90;;;;;;4902486;29;20127;-95
2023/09/29 04:17:33;;;;;;;0.30;0.30;;;20.30;99.90;;;;;;4910810;29;20026;-95
2023/09/29 04:20:01;;;;;;;0.20;0.20;;;20.30;99.90;;;;;;4920431;29;20394;-95
2023/09/29 04:22:30;;;;;;;0.57;0.57;;;20.30;99.90;;;;;;4908667;29;20480;-95
2023/09/29 04:28:22;;;;;;;;;;;;;;;;;;;;;
2023/09/29 04:31:20;;;;;;;1.05;0.63;;;20.20;99.90;;;;;;4908179;29;20058;-95
2023/09/29 04:34:16;;;;;;;0.20;0.20;;;20.30;99.90;;;;;;4921327;28;20136;-95
2023/09/29 04:37:28;;;;;;;0.43;0.43;;;20.30;99.90;;;;;;4904804;29;20120;-96
2023/09/29 04:43:28;;;;;;;0.30;0.30;;;20.20;99.90;;;;;;5461132;23;20055;-95
2023/09/29 04:45:57;;;;;;;0.30;0.30;;;20.20;99.90;;;;;;4940357;28;20038;-93
2023/09/29 04:48:58;;;;;;;;;;;;;;;;;;;;;
2023/09/29 04:51:36;;;;;;;0.30;0.30;;;20.10;99.90;;;;;;4928227;29;20508;-93
2023/09/29 04:54:09;;;;;;;0.20;0.20;;;20.10;99.90;;;;;;4943914;28;20063;-93
2023/09/29 04:56:51;;;;;;;0.30;0.30;;;20.20;99.90;;;;;;4934681;28;20055;-93
2023/09/29 04:59:17;;;;;;;0.20;0.20;;;20.20;99.90;;;;;;4934701;28;20028;-93
2023/09/29 05:01:46;;;;;;;0.25;0.25;;;20.10;99.90;;;;;;4935289;28;20045;-94
2023/09/29 05:04:14;;;;;;;0.20;0.20;;;20.10;99.90;;;;;;4943042;28;20028;-93
2023/09/29 05:06:43;;;;;;;0.20;0.20;;;20.10;99.90;;;;;;4923822;29;20023;-94
2023/09/29 05:09:15;;;;;;;0.32;0.32;;;20.20;99.90;;;;;;4937620;28;20039;-93
2023/09/29 05:11:41;;;;;;;0.30;0.30;;;20.20;99.90;;;;;;4933397;29;20036;-93
2023/09/29 05:14:07;;;;;;;0.45;0.45;;;20.20;99.90;;;;;;4941722;28;20492;-93
2023/09/29 05:16:36;;;;;;;0.20;0.20;;;20.20;99.90;;;;;;4937490;29;20042;-96
2023/09/29 05:19:07;;;;;;;0.85;0.85;;;20.10;99.90;;;;;;4939812;29;20046;-96
2023/09/29 05:21:36;;;;;;;0.38;0.38;;;20.00;99.90;;;;;;4938653;29;20021;-96
2023/09/29 05:24:05;;;;;;;0.20;0.20;;;20.10;99.90;;;;;;4936733;29;20327;-95
2023/09/29 05:26:38;;;;;;;0.47;0.47;;;20.10;99.90;;;;;;4954191;28;20035;-95
2023/09/29 05:31:52;;;;;;;0.22;0.22;;;20.20;99.90;;;;;;5104057;23;20060;-95
2023/09/29 05:34:20;;;;;;;0.30;0.30;;;20.20;99.90;;;;;;5030222;23;20051;-96
2023/09/29 05:36:49;;;;;;;0.40;0.40;;;20.30;99.90;;;;;;4927757;29;20032;-96
2023/09/29 05:39:23;;;;;;;0.40;0.40;;;20.30;99.90;;;;;;4922725;29;20465;-94
2023/09/29 05:41:59;;;;;;;0.28;0.28;;;20.40;99.90;;;;;;4934365;28;20508;-96
2023/09/29 05:44:30;;;;;;;0.30;0.30;;;20.30;99.90;;;;;;4927034;29;20028;-96
2023/09/29 05:47:03;;;;;;;0.60;0.60;;;20.30;99.90;;;;;;4919536;29;20067;-96
2023/09/29 05:49:57;;;;;;;0.32;0.32;;;20.30;99.90;;;;;;4928743;29;20012;-96
2023/09/29 05:52:26;;;;;;;0.35;0.35;;;20.30;99.90;;;;;;4919331;29;20044;-96
2023/09/29 05:54:59;;;;;;;0.30;0.30;;;20.40;99.90;;;;;;4928666;29;20032;-96
2023/09/29 05:57:31;;;;;;;0.30;0.30;;;20.40;99.90;;;;;;4920728;29;20049;-94
2023/09/29 06:00:04;;;;;;;0.28;0.28;;;20.40;99.90;;;;;;4932244;29;20015;-95
2023/09/29 06:02:30;;;;;;;1.45;0.40;;;20.50;99.90;;;;;;4937383;29;20020;-94
2023/09/29 06:05:03;;;;;;;0.30;0.30;;;20.50;99.90;;;;;;4930136;29;20122;-94
2023/09/29 06:07:39;;;;;;;0.50;0.50;;;20.40;99.90;;;;;;4920581;29;20031;-94
2023/09/29 06:10:22;;;;;;;0.32;0.32;;;20.40;99.90;;;;;;4928309;29;20469;-94
2023/09/29 06:12:53;;;;;;;1.58;0.63;;;20.30;99.90;;;;;;4919704;29;20493;-93
2023/09/29 06:15:21;;;;;;;0.50;0.50;;;20.40;99.90;;;;;;4920869;29;20054;-94
2023/09/29 06:17:54;;;;;;;0.30;0.30;;;20.50;99.90;;;;;;4924267;29;20109;-94
2023/09/29 06:20:30;;;;;;;0.30;0.30;;;20.50;99.90;;;;;;4929199;29;20027;-96
2023/09/29 06:22:58;;;;;;;0.40;0.40;;;20.50;99.90;;;;;;4922620;29;20083;-96
2023/09/29 06:28:31;;;;;;;0.40;0.40;;;20.50;99.90;;;;;;5010870;23;20051;-94
2023/09/29 06:30:57;;;;;;;0.30;0.30;;;20.40;99.90;;;;;;4922658;29;20825;-94
2023/09/29 06:33:32;;;;;;;0.68;0.68;;;20.50;99.90;;;;;;4917901;29;20070;-95
2023/09/29 06:36:06;;;;;;;0.20;0.20;;;20.40;99.90;;;;;;4920610;29;20103;-95
2023/09/29 06:39:14;;;;;;;0.60;0.60;;;20.40;99.90;;;;;;4919189;29;20074;-95
2023/09/29 06:42:39;;;;;;;;;;;;;;;;;;;;;
2023/09/29 06:45:20;;;;;;;0.32;0.32;;;20.50;99.90;;;;;;4920117;29;20424;-94
2023/09/29 06:47:51;;;;;;;0.30;0.30;;;20.50;99.90;;;;;;4920407;29;20055;-95
2023/09/29 06:50:16;;;;;;;0.40;0.40;;;20.60;99.90;;;;;;4921480;29;20035;-94
2023/09/29 06:52:45;;;;;;;0.30;0.30;;;20.60;99.90;;;;;;4936696;28;20032;-96
2023/09/29 06:55:13;;;;;;;0.32;0.32;;;20.60;99.90;;;;;;4924059;29;20476;-94
2023/09/29 06:57:46;;;;;;;0.95;0.95;;;20.60;99.90;;;;;;4921447;29;20416;-94
2023/09/29 07:00:32;;;;;;;0.32;0.32;;;20.60;99.90;;;;;;4934816;28;20031;-94
2023/09/29 07:05:55;;;;;;;0.30;0.30;;;20.70;99.90;;;;;;4907158;29;20119;-94
2023/09/29 07:08:24;;;;;;;0.30;0.30;;;20.60;99.90;;;;;;4918106;29;20044;-95
2023/09/29 07:10:53;;;;;;;0.22;0.22;;;20.60;99.90;;;;;;4920623;29;20040;-94
2023/09/29 07:13:27;;;;;;;0.30;0.30;;;20.70;99.90;;;;;;4935729;28;20027;-94
2023/09/29 07:16:05;;;;;;;0.22;0.22;;;20.70;99.90;;;;;;4919657;29;20566;-94
2023/09/29 07:18:37;;;;;;;0.30;0.30;;;20.70;99.90;;;;;;4936019;28;20434;-95
2023/09/29 07:21:04;;;;;;;0.50;0.50;;;20.80;99.90;;;;;;4921838;29;20027;-94
2023/09/29 07:23:33;;;;;;;0.40;0.40;;;20.80;99.90;;;;;;4920479;29;20330;-94
2023/09/29 07:26:02;;;;;;;0.30;0.30;;;20.90;99.90;;;;;;4918280;29;20035;-94
2023/09/29 07:28:31;;;;;;;2.38;1.67;;;20.90;99.90;;;;;;4934714;28;20130;-92
2023/09/29 07:31:38;;;;;;;0.30;0.30;;;21.00;99.90;;;;;;4918610;29;20042;-94
2023/09/29 07:34:08;;;;;;;0.30;0.30;;;21.10;99.90;;;;;;4911554;29;20042;-94
2023/09/29 07:36:44;;;;;;;;;;;;;;;;;;;;;
2023/09/29 07:39:54;;;;;;;0.55;0.55;;;21.10;99.90;;;;;;4921700;29;20036;-95
2023/09/29 07:42:51;;;;;;;0.80;0.80;;;21.20;99.90;;;;;;4920937;28;20054;-96
2023/09/29 07:45:32;;;;;;;;;;;;;;;;;;;;;
2023/09/29 07:48:27;;;;;;;0.38;0.38;;;21.30;99.90;;;;;;4922570;29;20683;-96
2023/09/29 07:51:01;;;;;;;0.43;0.43;;;21.30;99.90;;;;;;4923430;29;20255;-96
2023/09/29 07:53:27;;;;;;;0.28;0.28;;;21.40;99.90;;;;;;4931391;29;20024;-96
2023/09/29 13:14:48;;;;;;;0.50;0.50;;;25.00;99.90;;;;;;4888000;29;20052;-96
2023/09/29 14:04:46;;;;;;;;;;;;;;;;;;;;;
2023/09/29 14:08:11;;;;;;;;;;;;;;;;;;;;;
2023/09/29 14:12:16;;;;;;;;;;;;;;;;;;;;;
2023/09/29 14:15:07;;;;;;;;;;;;;;;;;;;;;
2023/09/29 15:02:53;;;;;;;0.30;0.30;;;21.80;99.90;;;;;;4917715;29;20056;-96
2023/09/29 15:05:20;;;;;;;0.30;0.30;;;21.80;99.90;;;;;;4924617;29;20116;-96
2023/09/29 15:07:50;;;;;;;0.40;0.40;;;21.80;99.90;;;;;;4924046;29;20527;-96
2023/09/29 15:10:19;;;;;;;2.70;0.57;;;21.70;99.90;;;;;;4919761;29;20050;-96
2023/09/29 15:12:46;;;;;;;0.35;0.35;;;21.70;99.90;;;;;;4919462;29;20070;-96
2023/09/29 15:15:13;;;;;;;0.30;0.30;;;21.70;99.90;;;;;;4916718;29;20070;-96
2023/09/29 15:17:39;;;;;;;0.30;0.30;;;21.80;99.90;;;;;;4925007;29;20123;-96
2023/09/29 15:20:56;;;;;;;0.20;0.20;;;21.80;99.90;;;;;;4913521;29;20219;-96
2023/09/29 15:23:35;;;;;;;;;;;;;;;;;;;;;
2023/09/29 15:31:03;;;;;;;;;;;;;;;;;;;;;
2023/09/29 18:23:35;;;;;;;1.52;0.47;;;20.70;99.90;;;;;;4918658;29;20043;-93
2023/09/29 18:26:01;;;;;;;0.20;0.20;;;20.70;99.90;;;;;;4925038;29;20442;-93
2023/09/29 18:28:38;;;;;;;0.98;0.52;;;20.60;99.90;;;;;;4927834;29;20034;-94
2023/09/29 18:31:11;;;;;;;0.25;0.25;;;20.60;99.90;;;;;;4930970;29;20099;-94
2023/09/29 18:33:37;;;;;;;;;;;20.50;99.90;;;;;;4925556;29;20023;-95
2023/09/29 20:07:22;;;;;;;;;;;;;;;;;;;;;
2023/09/29 20:15:38;;;;;;;0.20;0.20;;;19.20;99.90;;;;;;5246279;23;20052;-96
2023/09/29 20:18:04;;;;;;;0.10;0.10;;;19.20;99.90;;;;;;4927214;29;20091;-92
2023/09/29 20:23:18;;;;;;;1.98;0.93;;;19.30;99.90;;;;;;4910388;29;20504;-95
2023/09/29 20:26:06;;;;;;;0.85;0.57;;;19.10;99.90;;;;;;4922264;29;20042;-95
2023/09/29 20:28:32;;;;;;;0.15;0.15;;;19.20;99.90;;;;;;4910762;29;20032;-94
2023/09/29 20:31:00;;;;;;;0.28;0.28;;;19.20;99.90;;;;;;4907324;29;20020;-96
2023/09/29 20:33:34;;;;;;;0.50;0.50;;;19.20;99.90;;;;;;4907792;29;20040;-94
2023/09/29 20:36:00;;;;;;;0.30;0.30;;;19.10;99.90;;;;;;4904666;29;20020;-93
2023/09/29 20:38:28;;;;;;;0.55;0.55;;;19.00;99.90;;;;;;4908099;29;20035;-96
2023/09/29 20:40:55;;;;;;;0.20;0.20;;;18.90;99.90;;;;;;4921880;29;20159;-92
2023/09/29 20:43:21;;;;;;;0.17;0.17;;;18.90;99.90;;;;;;4910484;29;20484;-94
2023/09/29 20:45:47;;;;;;;0.20;0.20;;;18.90;99.90;;;;;;4912297;29;20034;-93
2023/09/29 20:49:16;;;;;;;0.75;0.75;;;18.90;99.90;;;;;;4913991;29;20123;-94
2023/09/29 20:51:42;;;;;;;0.40;0.40;;;18.90;99.90;;;;;;4897643;29;20098;-92
2023/09/29 20:54:10;;;;;;;0.55;0.55;;;18.70;99.90;;;;;;4926453;29;20520;-92
2023/09/29 20:56:36;;;;;;;0.98;0.98;;;18.60;99.90;;;;;;4914783;29;20039;-91
2023/09/29 20:59:03;;;;;;;0.10;0.10;;;18.60;99.90;;;;;;4913746;29;20028;-92
2023/09/29 21:01:30;;;;;;;0.10;0.10;;;18.70;99.90;;;;;;4914042;29;20027;-91
2023/09/29 21:03:56;;;;;;;0.40;0.40;;;18.70;99.90;;;;;;4910729;29;20043;-92
2023/09/29 21:06:23;;;;;;;0.47;0.47;;;18.70;99.90;;;;;;4910760;29;20036;-96
2023/09/29 21:16:35;;;;;;;0.47;0.47;;;18.60;99.90;;;;;;5063055;23;20496;-95
2023/09/29 21:27:00;;;;;;;0.20;0.20;;;18.50;99.90;;;;;;5550455;23;21153;-95
2023/09/29 21:42:17;;;;;;;0.25;0.25;;;18.40;99.90;;;;;;4894114;29;20055;-96
2023/09/29 21:44:43;;;;;;;2.83;0.30;;;18.30;99.90;;;;;;4910487;29;20041;-96
2023/09/29 21:47:52;;;;;;;0.20;0.20;;;18.30;99.90;;;;;;4905198;29;20020;-96
2023/09/29 22:14:43;;;;;;;0.25;0.22;;;17.90;99.90;;;;;;4895105;29;20072;-94
2023/09/29 22:23:13;;;;;;;;;;;;;;;;;;;;;
2023/09/29 22:29:18;;;;;;;0.25;0.25;;;17.40;99.90;;;;;;4888301;29;20047;-96
2023/09/29 22:31:44;;;;;;;0.63;0.63;;;17.10;99.90;;;;;;4903473;29;20033;-96
2023/09/29 22:34:10;;;;;;;0.75;0.75;;;16.90;99.90;;;;;;4891855;29;20047;-94
2023/09/29 22:36:36;;;;;;;0.20;0.15;;;16.90;99.90;;;;;;4899267;29;20186;-96
2023/09/29 22:39:23;;;;;;;0.10;0.10;;;16.90;99.90;;;;;;4896782;29;20032;-96
2023/09/29 22:41:49;;;;;;;0.17;0.17;;;16.70;99.90;;;;;;4886121;29;20040;-94
2023/09/29 22:44:15;;;;;;;0.55;0.55;;;16.70;99.90;;;;;;4891703;29;20107;-96
2023/09/29 22:46:43;;;;;;;0.25;0.25;;;16.70;99.90;;;;;;4895296;29;20556;-95
2023/09/29 22:49:11;;;;;;;0.35;0.32;;;16.70;99.90;;;;;;4895876;29;20116;-96
2023/09/29 22:51:39;;;;;;;0.10;0.10;;;16.60;99.90;;;;;;4893781;29;20032;-94
2023/09/29 22:54:07;;;;;;;0.10;0.10;;;16.60;99.90;;;;;;4894332;29;20384;-94
2023/09/29 22:56:34;;;;;;;0.10;0.10;;;16.70;99.90;;;;;;4893324;29;20028;-94
2023/09/29 23:01:35;;;;;;;0.10;0.10;;;16.90;99.90;;;;;;5202310;23;20093;-94
2023/09/29 23:04:01;;;;;;;0.60;0.60;;;17.00;99.90;;;;;;4920175;29;20020;-94
2023/09/29 23:06:26;;;;;;;0.10;0.10;;;17.10;99.90;;;;;;4921687;29;20685;-95
2023/09/29 23:08:52;;;;;;;0.22;0.22;;;17.10;99.90;;;;;;4927220;29;20124;-92
2023/09/29 23:11:18;;;;;;;0.80;0.40;;;17.00;99.90;;;;;;4927021;29;20028;-95
2023/09/29 23:13:44;;;;;;;0.28;0.28;;;17.00;99.90;;;;;;4927337;29;20047;-93
2023/09/29 23:16:10;;;;;;;0.22;0.22;;;17.00;99.90;;;;;;4927397;29;20034;-94
2023/09/29 23:18:36;;;;;;;0.10;0.10;;;17.00;99.90;;;;;;4920300;29;20024;-93
2023/09/29 23:21:02;;;;;;;0.10;0.10;;;17.00;99.90;;;;;;4925744;29;20031;-92
2023/09/29 23:23:27;;;;;;;0.57;0.57;;;17.10;99.90;;;;;;4922296;29;20094;-94
2023/09/29 23:25:54;;;;;;;0.40;0.40;;;17.10;99.90;;;;;;4928463;29;20035;-94
2023/09/29 23:28:20;;;;;;;0.80;0.40;;;17.10;99.90;;;;;;4925282;29;20469;-96
2023/09/29 23:30:46;;;;;;;0.10;0.10;;;17.10;99.90;;;;;;4925642;29;20115;-93
2023/09/29 23:33:12;;;;;;;0.20;0.20;;;17.00;99.90;;;;;;4923200;29;20110;-93
2023/09/29 23:35:38;;;;;;;0.20;0.20;;;17.00;99.90;;;;;;4920899;29;20035;-94
2023/09/29 23:38:04;;;;;;;0.32;0.32;;;17.00;99.90;;;;;;4927255;29;20032;-94
2023/09/29 23:40:30;;;;;;;0.30;0.30;;;16.80;99.90;;;;;;4919124;29;20032;-96
2023/09/29 23:42:56;;;;;;;0.20;0.20;;;16.90;99.90;;;;;;4927013;29;20047;-95
2023/09/29 23:45:21;;;;;;;0.10;0.10;;;16.90;99.90;;;;;;4926433;29;20115;-94
2023/09/29 23:47:51;;;;;;;2.65;0.40;;;17.00;99.90;;;;;;4917100;29;20032;-94
2023/09/29 23:50:17;;;;;;;0.57;0.20;;;16.90;99.90;;;;;;4927902;29;20040;-94
2023/09/29 23:52:43;;;;;;;0.10;0.10;;;17.00;99.90;;;;;;4921941;29;20024;-95
2023/09/29 23:55:09;;;;;;;0.22;0.22;;;16.90;99.90;;;;;;4924982;29;20028;-94
2023/09/29 23:57:35;;;;;;;0.10;0.10;;;16.90;99.90;;;;;;4928955;29;20312;-95
